• Join FlightAware (Why Join?)
  • Login
  • US Flag 
12:30AM EDT


 

Airport Tracker/Info


-or-


 

Live Flight TrackerFlight Track Log ✈ PDT4249 ✈ 28-Apr-2013 ✈ KPHL - KDCA

Flight Track Log - Related Links

Times and Time Zones

All times are in EDT time to prevent confusion due to time zone crossing. See the PDT4249 flight status page for this flight to view local times or setup timezone preferences in your user account.

Time Position Orientation Groundspeed Altitude Reporting Facility
EDT Latitude Longitude Course Direction KTS MPH feet Rate Location/Type
04:04PM 39.8833 -75.2167 247° West 122 140 700  Level Philadelphia TRACON
04:05PM 39.8667 -75.1667 113° Southeast 147 169 2,200 1,320 Climbing Philadelphia TRACON
04:06PM 39.8333 -75.1333 142° Southeast 152 175 3,500 1,200 Climbing Philadelphia TRACON
04:07PM 39.7752 -75.3912 247° West  Level FlightAware Approximate
04:07PM 39.8000 -75.1333 180° South 154 177 4,700  Level Philadelphia TRACON
04:08PM 39.7503 -75.4494 237° Southwest  Level FlightAware Approximate
04:08PM 39.7667 -75.1667 218° Southwest 167 192 6,300  Level Philadelphia TRACON
04:09PM 39.7253 -75.5076 247° West  Level FlightAware Approximate
04:09PM 39.7500 -75.2167 247° West 167 192 7,600  Level Philadelphia TRACON
04:10PM 39.7333 -75.2833 252° West 210 242 8,000 180 Climbing Philadelphia TRACON
04:11PM 39.7167 -75.3667 255° West 225 259 8,000  Level Philadelphia TRACON
04:12PM 39.7167 -75.4500 270° West 232 267 8,000  Level Philadelphia TRACON
04:13PM 39.7000 -75.5333 255° West 235 270 8,000  Level Philadelphia TRACON
04:14PM 39.6833 -75.6167 255° West 234 269 8,000  Level Philadelphia TRACON
04:15PM 39.6667 -75.7000 255° West 234 269 8,000  Level Philadelphia TRACON
04:16PM 39.6667 -75.7833 270° West 234 269 8,000  Level Philadelphia TRACON
04:19PM 39.6333 -75.9667 257° West 229 264 8,100  Climbing Potomac TRACON
04:20PM 39.6167 -76.0500 255° West 228 262 8,000 -540 Descending Potomac TRACON
04:21PM 39.6167 -76.1333 270° West 237 273 7,100 -960 Descending Potomac TRACON
04:22PM 39.5833 -76.2000 237° Southwest 239 275 6,100 -600 Descending Potomac TRACON
04:23PM 39.5333 -76.2500 218° Southwest 224 258 6,000 -60 Descending Potomac TRACON
04:24PM 39.4833 -76.3167 226° Southwest 216 249 6,000  Level Potomac TRACON
04:25PM 39.4333 -76.3667 218° Southwest 214 246 6,000  Level Potomac TRACON
04:27PM 39.3500 -76.4667 223° Southwest 214 246 6,000  Level Potomac TRACON
04:28PM 39.3000 -76.5167 218° Southwest 215 247 6,000  Level Potomac TRACON
04:29PM 39.2667 -76.5667 229° Southwest 219 252 6,000  Level Potomac TRACON
04:30PM 39.2167 -76.6167 218° Southwest 216 249 6,000  Level Potomac TRACON
04:31PM 39.1667 -76.6667 218° Southwest 206 237 6,000 -60 Level Potomac TRACON
04:32PM 39.1333 -76.7167 229° Southwest 200 230 5,900  Descending Potomac TRACON
04:33PM 39.0833 -76.7500 207° Southwest 192 221 6,000 -480 Climbing Potomac TRACON
04:35PM 39.0333 -76.8158 270° West  Level FlightAware Approximate
04:36PM 38.9500 -76.8833 270° West 229 264 4,200  Level Potomac TRACON
04:37PM 38.9000 -76.9333 218° Southwest 232 267 3,200 -600 Descending Potomac TRACON
04:38PM 38.8667 -77.0000 237° Southwest 227 261 3,100 -120 Descending Potomac TRACON
04:39PM 38.8500 -77.0833 256° West 222 255 3,000 -180 Descending Potomac TRACON
04:41PM 38.8500 -77.2333 270° West 204 235 2,700 -300 Descending Potomac TRACON
04:42PM 38.8833 -77.2667 322° Northwest 206 237 2,100 -300 Descending Potomac TRACON
04:43PM 38.9000 -77.2167 67° East 161 185 2,100  Level Potomac TRACON